sensor_id;sensor_type;location;lat;lon;timestamp;temperature;humidity
6373;DHT22;3219;51.362;7.074;2023-07-20T12:29:47;23.10;84.50
6373;DHT22;3219;51.362;7.074;2023-07-20T12:32:14;23.00;85.90
6373;DHT22;3219;51.362;7.074;2023-07-20T12:34:40;22.90;87.20
6373;DHT22;3219;51.362;7.074;2023-07-20T12:37:07;22.80;88.30
6373;DHT22;3219;51.362;7.074;2023-07-20T12:39:34;22.70;89.20
6373;DHT22;3219;51.362;7.074;2023-07-20T12:42:01;22.70;89.80
6373;DHT22;3219;51.362;7.074;2023-07-20T12:44:28;22.70;90.00
6373;DHT22;3219;51.362;7.074;2023-07-20T12:46:56;22.80;90.00
6373;DHT22;3219;51.362;7.074;2023-07-20T12:49:23;23.00;88.50
6373;DHT22;3219;51.362;7.074;2023-07-20T12:51:49;23.10;88.10
6373;DHT22;3219;51.362;7.074;2023-07-20T12:55:19;23.30;87.60
6373;DHT22;3219;51.362;7.074;2023-07-20T12:57:46;23.40;87.60
6373;DHT22;3219;51.362;7.074;2023-07-20T13:00:14;23.40;87.20
6373;DHT22;3219;51.362;7.074;2023-07-20T13:02:41;23.20;86.90
6373;DHT22;3219;51.362;7.074;2023-07-20T13:05:09;23.10;87.20
6373;DHT22;3219;51.362;7.074;2023-07-20T13:07:37;23.00;88.00
6373;DHT22;3219;51.362;7.074;2023-07-20T13:10:05;22.80;89.00
6373;DHT22;3219;51.362;7.074;2023-07-20T13:12:34;22.70;88.20
6373;DHT22;3219;51.362;7.074;2023-07-20T13:15:02;22.60;88.80
6373;DHT22;3219;51.362;7.074;2023-07-20T13:17:31;22.50;89.00
6373;DHT22;3219;51.362;7.074;2023-07-20T13:19:58;22.40;88.30
6373;DHT22;3219;51.362;7.074;2023-07-20T13:22:24;22.30;88.00
6373;DHT22;3219;51.362;7.074;2023-07-20T13:24:52;22.20;88.80
6373;DHT22;3219;51.362;7.074;2023-07-20T13:27:19;22.10;88.90
6373;DHT22;3219;51.362;7.074;2023-07-20T13:29:48;22.00;89.80
6373;DHT22;3219;51.362;7.074;2023-07-20T13:32:15;21.90;90.10
6373;DHT22;3219;51.362;7.074;2023-07-20T13:34:43;21.90;90.10
6373;DHT22;3219;51.362;7.074;2023-07-20T13:37:10;21.90;89.50
6373;DHT22;3219;51.362;7.074;2023-07-20T13:39:37;21.80;89.80
6373;DHT22;3219;51.362;7.074;2023-07-20T13:42:05;21.80;89.50
6373;DHT22;3219;51.362;7.074;2023-07-20T13:44:32;21.90;90.30
6373;DHT22;3219;51.362;7.074;2023-07-20T13:47:01;21.90;90.70
6373;DHT22;3219;51.362;7.074;2023-07-20T13:49:28;22.00;90.40
6373;DHT22;3219;51.362;7.074;2023-07-20T13:51:55;22.10;90.20
6373;DHT22;3219;51.362;7.074;2023-07-20T13:54:22;22.10;90.50
6373;DHT22;3219;51.362;7.074;2023-07-20T13:56:49;22.20;90.70
6373;DHT22;3219;51.362;7.074;2023-07-20T13:59:17;22.30;90.60
6373;DHT22;3219;51.362;7.074;2023-07-20T14:01:44;22.40;90.30
6373;DHT22;3219;51.362;7.074;2023-07-20T14:04:13;22.40;89.50
6373;DHT22;3219;51.362;7.074;2023-07-20T14:06:40;22.50;89.10
6373;DHT22;3219;51.362;7.074;2023-07-20T14:09:07;22.50;90.10
6373;DHT22;3219;51.362;7.074;2023-07-20T14:11:34;22.60;90.10
6373;DHT22;3219;51.362;7.074;2023-07-20T15:23:22;23.20;89.00
6373;DHT22;3219;51.362;7.074;2023-07-20T15:25:49;23.10;90.20
6373;DHT22;3219;51.362;7.074;2023-07-20T16:27:53;22.60;97.10
6373;DHT22;3219;51.362;7.074;2023-07-20T16:55:10;22.10;96.00
6373;DHT22;3219;51.362;7.074;2023-07-20T16:57:38;22.10;99.90
6373;DHT22;3219;51.362;7.074;2023-07-20T22:46:01;18.70;99.90
